Time;durP1;ratioP1;P1;durP2;ratioP2;P2;SDS_P1;SDS_P2;PMS_P1;PMS_P2;Temp;Humidity;BMP_temperature;BMP_pressure;BME280_temperature;BME280_humidity;BME280_pressure;Samples;Min_cycle;Max_cycle;Signal;HPM_P1;HPM_P2
2022/05/19 00:01:28;;;;;;;4.28;1.25;;;21.20;62.70;;;;;;5094687;28;20036;-77
2022/05/19 00:03:55;;;;;;;1.80;1.10;;;21.10;63.70;;;;;;5094989;28;20570;-75
2022/05/19 00:06:21;;;;;;;2.33;0.85;;;21.00;63.60;;;;;;5078840;28;20040;-75
2022/05/19 00:08:47;;;;;;;0.90;0.80;;;20.90;63.60;;;;;;5096316;28;20043;-74
2022/05/19 00:11:17;;;;;;;1.00;0.90;;;21.00;63.80;;;;;;5086827;28;20058;-76
2022/05/19 00:13:43;;;;;;;0.68;0.63;;;20.90;64.00;;;;;;5100509;28;20032;-76
2022/05/19 00:16:10;;;;;;;1.10;1.00;;;20.80;64.10;;;;;;5101024;28;20083;-75
2022/05/19 00:18:37;;;;;;;2.20;1.20;;;20.90;63.90;;;;;;5101054;28;20366;-76
2022/05/19 00:21:04;;;;;;;1.58;1.13;;;20.90;64.00;;;;;;5095316;28;20040;-76
2022/05/19 00:23:30;;;;;;;1.77;1.40;;;20.80;64.60;;;;;;5077236;28;20040;-76
2022/05/19 00:25:57;;;;;;;2.63;1.50;;;20.60;65.40;;;;;;5092866;28;20039;-76
2022/05/19 00:28:24;;;;;;;2.78;1.35;;;20.40;65.90;;;;;;5094456;28;20027;-75
2022/05/19 00:30:50;;;;;;;2.30;1.60;;;20.30;65.80;;;;;;5092027;28;20370;-76
2022/05/19 00:33:16;;;;;;;1.75;1.17;;;20.30;66.00;;;;;;5086315;28;20039;-76
2022/05/19 00:35:42;;;;;;;1.15;0.90;;;20.20;66.00;;;;;;5096206;28;20051;-76
2022/05/19 00:38:09;;;;;;;1.27;1.10;;;20.20;65.90;;;;;;5091439;28;20261;-76
2022/05/19 00:40:36;;;;;;;2.05;1.17;;;20.20;65.80;;;;;;5091594;28;20036;-75
2022/05/19 00:43:04;;;;;;;2.50;1.38;;;20.10;65.90;;;;;;5075257;28;20032;-74
2022/05/19 00:45:41;;;;;;;1.50;1.20;;;20.20;65.20;;;;;;5089419;28;20032;-75
2022/05/19 00:48:33;;;;;;;1.92;1.45;;;20.30;64.70;;;;;;5089562;28;20032;-75
2022/05/19 00:51:03;;;;;;;1.25;0.77;;;20.40;64.60;;;;;;5088838;28;20059;-76
2022/05/19 00:53:40;;;;;;;1.13;0.90;;;20.30;64.40;;;;;;5084936;28;20047;-76
2022/05/19 00:56:27;;;;;;;1.45;1.33;;;20.30;64.40;;;;;;5088895;28;20033;-75
2022/05/19 00:59:16;;;;;;;1.52;1.20;;;20.40;63.90;;;;;;5086031;28;20024;-74
2022/05/19 01:01:44;;;;;;;1.80;1.02;;;20.50;63.80;;;;;;5087272;28;20028;-73
2022/05/19 01:04:29;;;;;;;1.33;1.10;;;20.40;63.90;;;;;;5075455;28;20044;-73
2022/05/19 01:07:01;;;;;;;4.35;1.75;;;20.30;63.80;;;;;;5088440;28;20028;-74
2022/05/19 01:09:30;;;;;;;2.50;1.40;;;20.40;63.60;;;;;;5083549;28;20453;-73
2022/05/19 01:11:58;;;;;;;1.23;0.90;;;20.40;63.40;;;;;;5066967;28;20486;-74
2022/05/19 01:14:25;;;;;;;1.40;0.98;;;20.40;63.40;;;;;;5070943;28;20045;-75
2022/05/19 01:16:52;;;;;;;2.60;0.88;;;20.30;63.50;;;;;;5068793;28;20036;-75
2022/05/19 01:19:31;;;;;;;1.08;0.98;;;20.20;63.60;;;;;;5053772;28;20029;-75
2022/05/19 01:22:17;;;;;;;2.85;1.17;;;20.30;63.40;;;;;;5050173;28;20047;-76
2022/05/19 01:24:55;;;;;;;0.98;0.73;;;20.30;63.80;;;;;;5017411;28;20040;-75
2022/05/19 01:27:22;;;;;;;1.17;1.08;;;20.10;63.30;;;;;;5054744;28;20059;-75
2022/05/19 01:29:48;;;;;;;4.25;1.30;;;20.10;63.20;;;;;;5071538;28;20389;-74
2022/05/19 01:32:27;;;;;;;1.40;0.88;;;20.10;63.10;;;;;;5068544;28;20516;-75
2022/05/19 01:34:54;;;;;;;1.33;0.68;;;20.00;63.40;;;;;;5052822;28;20040;-75
2022/05/19 01:37:20;;;;;;;3.60;1.02;;;20.00;63.30;;;;;;5053454;28;20040;-76
2022/05/19 01:40:05;;;;;;;1.45;1.08;;;19.90;63.30;;;;;;5047902;28;20052;-76
2022/05/19 01:43:05;;;;;;;1.58;1.40;;;20.00;62.90;;;;;;5072518;28;20385;-74
2022/05/19 01:45:52;;;;;;;4.53;1.17;;;20.00;62.70;;;;;;5051458;28;20045;-74
2022/05/19 01:48:28;;;;;;;2.53;1.08;;;20.00;62.20;;;;;;5065848;28;20393;-75
2022/05/19 01:51:11;;;;;;;1.60;0.75;;;20.00;62.00;;;;;;5069766;28;20060;-75
2022/05/19 01:54:01;;;;;;;1.75;1.35;;;19.90;62.40;;;;;;5072183;28;20028;-75
2022/05/19 01:57:02;;;;;;;1.73;1.23;;;19.80;62.80;;;;;;5068906;28;20056;-76
2022/05/19 01:59:28;;;;;;;3.92;1.25;;;19.70;62.90;;;;;;5055747;28;20037;-76
2022/05/19 02:02:26;;;;;;;1.95;1.13;;;19.50;63.10;;;;;;5047918;28;20045;-76
2022/05/19 02:05:18;;;;;;;1.30;1.17;;;19.50;63.40;;;;;;5065680;28;20035;-76
2022/05/19 02:07:48;;;;;;;1.65;1.17;;;19.50;63.20;;;;;;5066378;28;20040;-75
2022/05/19 02:10:18;;;;;;;1.33;0.98;;;19.50;63.00;;;;;;5067655;28;20403;-75
2022/05/19 02:12:47;;;;;;;;;;;19.50;63.00;;;;;;5051149;28;20044;-75
2022/05/19 02:15:17;;;;;;;1.27;0.77;;;19.50;62.80;;;;;;5036480;28;19912;-76
2022/05/19 02:17:50;;;;;;;1.08;0.80;;;19.50;62.60;;;;;;5068779;28;20044;-75
2022/05/19 02:20:20;;;;;;;4.38;1.67;;;19.40;62.80;;;;;;5070096;28;20028;-76
2022/05/19 02:22:46;;;;;;;1.00;0.95;;;19.30;63.10;;;;;;5065956;28;20409;-75
2022/05/19 02:25:29;;;;;;;2.45;1.30;;;19.30;62.90;;;;;;5064646;28;20044;-76
2022/05/19 02:28:12;;;;;;;1.55;0.90;;;19.50;62.70;;;;;;5066996;28;20033;-76
2022/05/19 02:30:40;;;;;;;1.83;0.52;;;19.40;62.60;;;;;;5065559;28;20039;-76
2022/05/19 02:33:07;;;;;;;1.13;0.77;;;19.40;63.00;;;;;;5063188;28;20025;-75
2022/05/19 02:35:34;;;;;;;1.33;0.93;;;19.30;63.30;;;;;;5053501;28;20052;-76
2022/05/19 02:38:01;;;;;;;5.18;1.38;;;19.10;63.80;;;;;;5065627;28;20029;-76
2022/05/19 02:40:31;;;;;;;1.60;0.77;;;19.00;64.00;;;;;;5059855;28;20033;-75
2022/05/19 02:42:59;;;;;;;2.92;1.48;;;18.90;64.50;;;;;;5059631;28;20040;-76
2022/05/19 02:45:26;;;;;;;1.00;0.75;;;18.70;65.10;;;;;;5063593;28;20037;-76
2022/05/19 02:47:52;;;;;;;4.38;1.10;;;18.50;65.70;;;;;;5063084;28;20044;-75
2022/05/19 02:50:20;;;;;;;0.80;0.80;;;18.40;66.70;;;;;;5047565;28;20033;-75
2022/05/19 02:52:47;;;;;;;1.65;1.05;;;18.20;67.90;;;;;;5064815;28;20036;-75
2022/05/19 02:55:15;;;;;;;0.75;0.75;;;18.10;69.70;;;;;;5050408;28;20485;-75
2022/05/19 02:57:42;;;;;;;2.15;1.40;;;18.00;71.70;;;;;;5050537;28;20025;-73
2022/05/19 03:00:14;;;;;;;1.92;1.10;;;17.90;73.90;;;;;;5072320;28;20035;-74
2022/05/19 03:02:41;;;;;;;3.17;1.67;;;17.70;75.60;;;;;;5071416;28;20044;-74
2022/05/19 03:05:10;;;;;;;2.70;1.55;;;17.60;77.10;;;;;;5071963;28;20036;-74
2022/05/19 03:07:36;;;;;;;1.55;1.08;;;17.50;78.60;;;;;;5068700;28;20041;-74
2022/05/19 03:10:04;;;;;;;4.22;1.48;;;17.20;81.40;;;;;;5072455;28;20056;-76
2022/05/19 03:12:31;;;;;;;1.02;0.90;;;17.00;83.90;;;;;;5075226;28;20032;-75
2022/05/19 03:14:57;;;;;;;1.92;1.27;;;16.80;86.30;;;;;;5074104;28;20044;-75
2022/05/19 03:17:24;;;;;;;2.80;1.17;;;16.80;87.60;;;;;;5072066;28;20043;-75
2022/05/19 03:19:53;;;;;;;1.05;0.95;;;16.80;88.30;;;;;;5067151;28;20025;-73
2022/05/19 03:22:21;;;;;;;3.08;1.27;;;16.70;89.00;;;;;;5056113;28;20055;-75
2022/05/19 03:24:48;;;;;;;1.35;0.82;;;16.60;90.20;;;;;;5073939;28;20032;-75
2022/05/19 03:27:14;;;;;;;2.75;1.77;;;16.50;90.40;;;;;;5071922;28;21539;-76
2022/05/19 03:29:40;;;;;;;2.90;1.25;;;16.30;90.90;;;;;;5066112;28;20045;-76
2022/05/19 03:32:07;;;;;;;2.13;1.50;;;16.20;91.70;;;;;;5064072;28;20040;-75
2022/05/19 03:34:34;;;;;;;3.60;1.30;;;16.10;92.10;;;;;;5074154;28;20040;-75
2022/05/19 03:37:04;;;;;;;2.22;1.20;;;16.00;92.60;;;;;;5068933;28;20029;-75
2022/05/19 03:39:32;;;;;;;2.60;1.20;;;16.00;92.90;;;;;;5055405;28;21039;-75
2022/05/19 03:41:59;;;;;;;1.65;1.30;;;15.90;93.20;;;;;;5072762;28;20322;-75
2022/05/19 03:44:26;;;;;;;1.13;1.00;;;15.90;93.40;;;;;;5073707;28;20040;-75
2022/05/19 03:46:52;;;;;;;1.58;0.93;;;15.80;93.90;;;;;;5053079;28;20064;-76
2022/05/19 03:49:18;;;;;;;3.22;1.38;;;15.70;93.70;;;;;;5055341;28;20040;-76
2022/05/19 03:51:44;;;;;;;1.20;1.10;;;15.40;93.80;;;;;;5067898;28;20048;-75
2022/05/19 03:54:11;;;;;;;1.17;1.02;;;15.20;94.20;;;;;;5069908;28;20466;-75
2022/05/19 03:56:38;;;;;;;1.83;1.20;;;15.10;94.60;;;;;;5073866;28;20033;-76
2022/05/19 03:59:04;;;;;;;1.48;1.38;;;15.00;95.20;;;;;;5073661;28;20048;-75
2022/05/19 04:01:31;;;;;;;1.08;0.90;;;15.10;95.90;;;;;;5050306;28;20052;-75
2022/05/19 04:03:59;;;;;;;1.33;1.23;;;15.30;95.70;;;;;;5071477;28;20385;-76
2022/05/19 04:06:28;;;;;;;1.20;1.05;;;15.40;95.50;;;;;;5063668;28;20040;-75
2022/05/19 04:08:55;;;;;;;2.00;1.50;;;15.50;94.70;;;;;;5054283;28;20040;-75
2022/05/19 04:11:21;;;;;;;2.00;1.33;;;15.60;95.10;;;;;;5063058;28;20052;-76
2022/05/19 04:13:47;;;;;;;1.35;1.25;;;15.70;95.10;;;;;;5073709;28;20454;-75
2022/05/19 04:16:13;;;;;;;2.13;1.38;;;15.70;95.10;;;;;;5049133;28;20025;-75
2022/05/19 04:18:39;;;;;;;3.30;1.88;;;15.80;95.40;;;;;;5071411;28;20055;-76
2022/05/19 04:21:06;;;;;;;2.33;1.48;;;15.90;95.20;;;;;;5067159;28;20032;-75
2022/05/19 04:23:32;;;;;;;1.50;1.40;;;16.00;95.10;;;;;;5071294;28;20489;-76
2022/05/19 04:25:58;;;;;;;2.25;1.80;;;16.00;95.00;;;;;;5074382;28;20099;-76
2022/05/19 04:28:25;;;;;;;5.45;1.35;;;16.00;95.00;;;;;;5053884;28;20036;-73
2022/05/19 04:30:52;;;;;;;1.92;1.58;;;15.90;95.40;;;;;;5070405;28;20479;-74
2022/05/19 04:33:19;;;;;;;2.22;1.33;;;16.00;95.10;;;;;;5056250;28;20363;-76
2022/05/19 04:35:45;;;;;;;1.88;1.35;;;16.10;95.20;;;;;;5075306;28;20028;-75
2022/05/19 04:38:14;;;;;;;0.80;0.80;;;16.10;95.00;;;;;;5060053;28;20045;-76
2022/05/19 04:40:47;;;;;;;1.67;1.48;;;16.00;94.60;;;;;;5053722;28;20049;-76
2022/05/19 04:43:23;;;;;;;2.25;1.50;;;16.10;94.80;;;;;;5070906;28;20036;-74
2022/05/19 04:45:50;;;;;;;2.78;1.58;;;16.40;94.00;;;;;;5072459;28;20029;-74
2022/05/19 04:48:17;;;;;;;2.63;1.80;;;16.50;93.50;;;;;;5070560;28;20032;-75
2022/05/19 04:50:43;;;;;;;2.85;1.63;;;16.50;93.90;;;;;;5064365;28;20036;-75
2022/05/19 04:53:10;;;;;;;7.68;1.50;;;16.50;94.00;;;;;;5070951;28;20041;-75
2022/05/19 04:55:38;;;;;;;2.60;2.03;;;16.50;94.10;;;;;;5054520;28;20037;-75
2022/05/19 04:58:05;;;;;;;1.52;1.42;;;16.40;94.20;;;;;;5068219;28;20037;-75
2022/05/19 05:00:33;;;;;;;1.85;1.17;;;16.50;93.90;;;;;;5068737;28;20417;-75
2022/05/19 05:02:59;;;;;;;1.77;1.45;;;16.90;93.70;;;;;;5049102;28;20045;-75
2022/05/19 05:05:25;;;;;;;3.42;1.65;;;17.40;92.50;;;;;;5054557;28;20377;-77
2022/05/19 05:07:53;;;;;;;2.33;1.65;;;18.00;91.30;;;;;;5068676;28;20586;-76
2022/05/19 05:10:19;;;;;;;2.28;1.70;;;18.60;90.10;;;;;;5070551;28;20056;-76
2022/05/19 05:12:45;;;;;;;1.52;1.23;;;18.90;88.80;;;;;;5067227;28;20063;-75
2022/05/19 05:15:12;;;;;;;2.38;1.90;;;19.40;87.30;;;;;;5066918;28;20044;-76
2022/05/19 05:17:38;;;;;;;1.30;1.20;;;20.30;83.60;;;;;;5067609;28;20033;-76
2022/05/19 05:20:08;;;;;;;2.45;1.50;;;21.10;78.30;;;;;;5065694;28;20036;-75
2022/05/19 05:22:35;;;;;;;2.35;1.50;;;21.30;78.10;;;;;;5067903;28;20028;-76
2022/05/19 05:25:08;;;;;;;1.92;1.83;;;22.10;74.50;;;;;;5057595;28;20056;-74
2022/05/19 05:27:37;;;;;;;1.80;1.70;;;23.00;69.80;;;;;;5065051;28;20025;-72
2022/05/19 05:30:05;;;;;;;2.15;1.73;;;22.90;68.90;;;;;;5069103;28;20028;-73
2022/05/19 05:32:31;;;;;;;4.70;1.83;;;22.20;70.50;;;;;;5068911;28;20066;-74
2022/05/19 05:34:57;;;;;;;8.93;1.70;;;20.90;75.30;;;;;;5071339;28;20095;-74
2022/05/19 05:37:23;;;;;;;3.53;1.85;;;20.40;78.40;;;;;;5068796;28;20021;-74
2022/05/19 05:39:49;;;;;;;3.08;1.60;;;20.80;79.90;;;;;;5068094;28;20047;-74
2022/05/19 05:42:15;;;;;;;2.58;1.95;;;21.50;76.20;;;;;;5069619;28;20036;-73
2022/05/19 05:44:42;;;;;;;3.45;1.85;;;22.10;73.90;;;;;;5070340;28;20044;-74
2022/05/19 05:47:08;;;;;;;1.63;1.40;;;22.60;73.10;;;;;;5064627;28;20039;-73
2022/05/19 05:49:34;;;;;;;2.28;2.08;;;23.10;69.10;;;;;;5072647;28;20464;-73
2022/05/19 05:52:00;;;;;;;2.13;1.83;;;22.80;69.30;;;;;;5051519;28;20040;-74
2022/05/19 05:54:27;;;;;;;2.67;1.83;;;22.20;71.50;;;;;;5068576;28;20055;-73
2022/05/19 05:56:53;;;;;;;2.15;1.95;;;22.60;70.70;;;;;;5064332;28;20033;-76
2022/05/19 05:59:19;;;;;;;4.72;2.20;;;22.60;69.50;;;;;;5049557;28;20084;-73
2022/05/19 06:01:45;;;;;;;3.28;2.28;;;22.40;70.30;;;;;;5052570;28;20045;-74
2022/05/19 06:04:12;;;;;;;2.42;1.80;;;21.90;72.00;;;;;;5067093;28;20059;-74
2022/05/19 06:06:38;;;;;;;5.00;2.08;;;22.80;69.40;;;;;;5069534;28;20039;-73
2022/05/19 06:09:04;;;;;;;1.80;1.65;;;23.30;66.70;;;;;;5065936;28;20043;-74
2022/05/19 06:11:30;;;;;;;10.88;3.42;;;23.00;67.70;;;;;;5065048;28;20044;-73
2022/05/19 06:13:57;;;;;;;3.88;1.98;;;22.70;68.10;;;;;;5070724;28;20044;-74
2022/05/19 06:16:23;;;;;;;1.55;1.40;;;23.30;68.50;;;;;;5063692;28;20033;-74
2022/05/19 06:18:49;;;;;;;2.58;1.67;;;24.10;66.10;;;;;;5071077;28;20478;-75
2022/05/19 06:21:15;;;;;;;2.60;1.65;;;24.60;62.70;;;;;;5065229;28;20036;-74
2022/05/19 06:23:42;;;;;;;2.90;2.00;;;24.20;62.70;;;;;;5050504;28;20044;-74
2022/05/19 06:26:08;;;;;;;2.38;1.63;;;23.90;64.90;;;;;;5070222;28;20028;-74
2022/05/19 06:28:34;;;;;;;2.45;1.25;;;24.10;63.90;;;;;;5071548;28;20028;-74
2022/05/19 06:31:01;;;;;;;2.85;1.55;;;23.70;64.30;;;;;;5060783;28;20047;-74
2022/05/19 06:33:29;;;;;;;2.67;1.70;;;23.60;64.60;;;;;;5070990;28;20385;-74
2022/05/19 06:35:55;;;;;;;1.45;1.20;;;23.70;64.50;;;;;;5072158;28;20036;-74
2022/05/19 06:38:22;;;;;;;2.35;1.40;;;23.70;64.00;;;;;;5071568;28;20036;-73
2022/05/19 06:40:49;;;;;;;3.10;1.85;;;23.40;64.40;;;;;;5072818;28;20379;-73
2022/05/19 06:43:15;;;;;;;1.90;1.33;;;23.50;64.40;;;;;;5069195;28;20044;-73
2022/05/19 06:45:43;;;;;;;3.88;1.50;;;24.30;62.00;;;;;;5057159;28;20040;-73
2022/05/19 06:48:10;;;;;;;3.00;1.35;;;24.30;61.80;;;;;;5070494;28;20039;-73
2022/05/19 06:50:37;;;;;;;1.65;1.48;;;23.50;63.50;;;;;;5074234;28;20028;-73
2022/05/19 06:53:05;;;;;;;1.70;1.13;;;23.70;61.20;;;;;;5073251;28;20048;-73
2022/05/19 06:55:34;;;;;;;2.60;1.50;;;24.10;62.10;;;;;;5073814;28;20413;-73
2022/05/19 06:58:00;;;;;;;1.53;1.20;;;24.30;61.30;;;;;;5069417;28;20466;-73
2022/05/19 07:00:28;;;;;;;8.50;1.67;;;24.10;60.60;;;;;;5073654;28;20043;-74
2022/05/19 07:02:58;;;;;;;2.75;1.60;;;24.60;60.20;;;;;;5066829;28;20040;-73
2022/05/19 07:05:32;;;;;;;3.03;1.35;;;25.00;59.10;;;;;;5073717;28;20033;-72
2022/05/19 07:07:58;;;;;;;2.97;2.08;;;25.00;58.60;;;;;;5062377;28;20033;-73
2022/05/19 07:10:28;;;;;;;2.92;1.58;;;25.60;58.00;;;;;;5073845;28;20052;-74
2022/05/19 07:12:55;;;;;;;1.75;1.17;;;25.10;59.40;;;;;;5072783;28;20028;-73
2022/05/19 07:15:22;;;;;;;1.35;1.20;;;26.20;57.00;;;;;;5070499;28;20037;-73
2022/05/19 07:17:49;;;;;;;1.30;1.20;;;25.40;58.00;;;;;;5066683;28;20036;-73
2022/05/19 07:23:00;;;;;;;1.85;1.50;;;25.50;55.90;;;;;;5074798;28;20048;-74
2022/05/19 07:25:28;;;;;;;5.18;1.92;;;26.10;55.30;;;;;;5066458;28;20048;-74
2022/05/19 07:27:55;;;;;;;2.47;1.52;;;25.60;54.40;;;;;;5078058;28;20048;-74
2022/05/19 07:30:22;;;;;;;2.42;1.40;;;25.50;54.90;;;;;;5075400;28;20058;-74
2022/05/19 07:32:48;;;;;;;4.85;1.50;;;26.60;55.00;;;;;;5073615;28;20052;-74
2022/05/19 07:35:15;;;;;;;2.78;1.50;;;27.10;52.60;;;;;;5072871;28;20393;-74
2022/05/19 07:37:42;;;;;;;1.77;1.42;;;26.90;52.70;;;;;;5069055;28;20036;-73
2022/05/19 07:40:09;;;;;;;4.63;2.15;;;26.60;54.00;;;;;;5068665;28;20039;-74
2022/05/19 07:42:35;;;;;;;3.83;1.77;;;26.30;52.50;;;;;;5065213;28;20040;-74
2022/05/19 07:45:02;;;;;;;1.83;1.63;;;26.60;54.10;;;;;;5070858;28;20036;-74
2022/05/19 07:47:29;;;;;;;1.75;1.48;;;27.10;52.30;;;;;;5070598;28;20122;-74
2022/05/19 07:49:56;;;;;;;1.45;1.30;;;27.10;51.80;;;;;;5067750;28;20055;-75
2022/05/19 07:52:25;;;;;;;2.22;0.80;;;27.70;48.40;;;;;;5066507;28;20466;-73
2022/05/19 07:54:52;;;;;;;1.08;0.60;;;28.60;47.10;;;;;;5071248;28;20047;-74
2022/05/19 07:57:19;;;;;;;0.98;0.80;;;28.80;46.60;;;;;;5069870;28;20033;-73
2022/05/19 07:59:45;;;;;;;1.55;0.60;;;28.40;46.20;;;;;;5063336;28;20041;-74
2022/05/19 08:02:12;;;;;;;1.50;1.00;;;27.60;47.00;;;;;;5067769;28;20036;-74
2022/05/19 08:04:39;;;;;;;1.95;1.00;;;28.40;47.80;;;;;;5072388;28;20466;-74
2022/05/19 08:07:05;;;;;;;6.90;1.13;;;28.50;46.60;;;;;;5073231;28;20032;-75
2022/05/19 08:15:34;;;;;;;4.88;1.35;;;28.10;46.10;;;;;;5068166;28;20488;-73
2022/05/19 08:17:53;;;;;;;0.80;0.57;;;27.40;46.90;;;;;;5072597;28;20040;-73
2022/05/19 08:20:19;;;;;;;1.40;0.93;;;26.90;47.30;;;;;;5067748;28;20408;-74
2022/05/19 08:22:46;;;;;;;0.75;0.68;;;27.70;46.70;;;;;;5072248;28;20036;-73
2022/05/19 08:25:13;;;;;;;1.55;0.80;;;28.60;45.70;;;;;;5072103;28;20048;-72
2022/05/19 08:27:40;;;;;;;4.95;0.60;;;29.20;45.00;;;;;;5070622;28;20417;-74
2022/05/19 08:30:07;;;;;;;1.30;0.82;;;28.60;45.50;;;;;;5061662;28;20036;-74
2022/05/19 08:32:33;;;;;;;0.85;0.80;;;28.80;45.20;;;;;;5070966;28;20059;-73
2022/05/19 08:34:59;;;;;;;0.75;0.60;;;28.80;46.20;;;;;;5072807;28;20040;-75
2022/05/19 08:37:26;;;;;;;1.88;1.20;;;28.80;46.00;;;;;;5060115;28;20036;-73
2022/05/19 08:39:52;;;;;;;1.50;1.00;;;28.90;45.60;;;;;;5068725;28;20055;-73
2022/05/19 08:42:20;;;;;;;3.10;1.10;;;29.00;45.40;;;;;;5051949;28;20035;-74
2022/05/19 08:44:52;;;;;;;1.15;0.90;;;29.20;45.50;;;;;;5072611;28;20032;-74
2022/05/19 08:47:24;;;;;;;1.00;0.90;;;29.70;45.80;;;;;;5067668;28;20461;-73
2022/05/19 08:50:03;;;;;;;2.53;1.27;;;30.10;44.70;;;;;;5072980;28;20039;-74
2022/05/19 08:52:50;;;;;;;;;;;30.10;44.40;;;;;;5069922;28;20041;-72
2022/05/19 08:55:17;;;;;;;1.40;1.05;;;29.00;45.70;;;;;;5066257;28;20147;-73
2022/05/19 08:58:11;;;;;;;1.02;0.90;;;28.60;45.50;;;;;;5068048;28;20052;-74
2022/05/19 09:00:48;;;;;;;3.28;1.20;;;29.20;45.90;;;;;;5069996;28;20048;-75
2022/05/19 09:03:24;;;;;;;1.05;0.85;;;29.80;45.60;;;;;;5070891;28;20036;-73
2022/05/19 09:06:08;;;;;;;3.00;1.17;;;29.80;45.00;;;;;;5072406;28;20037;-75
2022/05/19 09:08:43;;;;;;;1.50;1.00;;;29.40;46.70;;;;;;5066778;28;20039;-74
2022/05/19 09:11:16;;;;;;;1.27;0.77;;;30.20;45.40;;;;;;5068556;28;20048;-74
2022/05/19 09:13:54;;;;;;;0.70;0.70;;;30.20;45.40;;;;;;5072606;28;20036;-74
2022/05/19 09:16:22;;;;;;;1.40;1.08;;;30.30;44.90;;;;;;5068498;28;20035;-73
2022/05/19 09:19:06;;;;;;;2.17;0.77;;;30.50;44.80;;;;;;5069790;28;20032;-74
2022/05/19 09:21:35;;;;;;;11.70;1.52;;;30.10;45.40;;;;;;5052665;28;20035;-73
2022/05/19 09:24:03;;;;;;;6.47;1.67;;;29.60;45.70;;;;;;5069239;28;20033;-75
2022/05/19 09:26:45;;;;;;;1.00;0.90;;;29.20;46.00;;;;;;5053813;28;20040;-73
2022/05/19 09:29:18;;;;;;;3.78;1.67;;;29.80;46.00;;;;;;5071173;28;20036;-72
2022/05/19 09:31:55;;;;;;;1.50;1.23;;;29.60;46.30;;;;;;5064506;28;20032;-74
2022/05/19 09:34:29;;;;;;;1.25;1.10;;;29.80;47.10;;;;;;5068998;28;20044;-75
2022/05/19 09:37:08;;;;;;;2.30;1.33;;;30.40;46.70;;;;;;5068074;28;20351;-74
2022/05/19 09:39:42;;;;;;;;;;;30.40;46.20;;;;;;5053781;28;20032;-77
2022/05/19 09:42:12;;;;;;;1.92;1.33;;;30.90;46.80;;;;;;5050636;28;19915;-75
2022/05/19 09:44:54;;;;;;;2.67;1.58;;;31.40;45.50;;;;;;5069654;28;20028;-75
2022/05/19 09:47:36;;;;;;;2.28;1.23;;;31.10;46.20;;;;;;5059127;28;20036;-74
2022/05/19 09:50:16;;;;;;;1.75;1.30;;;30.50;46.80;;;;;;5067868;28;20363;-74
2022/05/19 09:52:44;;;;;;;1.52;1.00;;;30.90;46.20;;;;;;5066092;28;20067;-75
2022/05/19 09:55:14;;;;;;;2.15;1.58;;;30.50;46.80;;;;;;5067203;28;20036;-73
2022/05/19 09:57:53;;;;;;;3.67;1.73;;;30.50;47.30;;;;;;5068589;28;20032;-74
2022/05/19 10:00:31;;;;;;;2.30;1.27;;;31.20;48.00;;;;;;5067068;28;20035;-74
2022/05/19 10:03:00;;;;;;;4.65;1.70;;;31.40;47.10;;;;;;5071242;28;20431;-75
2022/05/19 10:05:35;;;;;;;1.35;1.25;;;31.00;47.10;;;;;;5069325;28;20029;-74
2022/05/19 10:08:06;;;;;;;1.90;1.38;;;30.30;47.70;;;;;;5065456;28;20033;-75
2022/05/19 10:10:42;;;;;;;2.25;1.33;;;30.30;47.80;;;;;;5065737;28;20386;-74
2022/05/19 10:13:12;;;;;;;3.05;1.20;;;30.30;48.50;;;;;;5070457;28;20043;-75
2022/05/19 10:15:51;;;;;;;2.42;1.02;;;30.90;48.30;;;;;;5071353;28;20080;-74
2022/05/19 10:18:38;;;;;;;3.50;1.75;;;30.50;48.40;;;;;;5067931;28;20396;-74
2022/05/19 10:21:16;;;;;;;4.35;1.98;;;29.60;49.30;;;;;;5069395;28;20032;-74
2022/05/19 10:23:58;;;;;;;2.72;1.55;;;29.60;49.70;;;;;;5066374;28;20033;-73
2022/05/19 10:26:29;;;;;;;3.95;1.45;;;29.40;49.70;;;;;;5070766;28;20059;-73
2022/05/19 10:32:35;;;;;;;;;;;29.20;50.30;;;;;;5064120;28;20036;-74
2022/05/19 10:35:19;;;;;;;2.30;1.95;;;29.40;50.30;;;;;;5064754;28;20306;-74
2022/05/19 10:38:03;;;;;;;2.97;1.55;;;29.50;49.90;;;;;;5046985;28;20055;-73
2022/05/19 10:41:06;;;;;;;4.28;2.00;;;29.50;50.50;;;;;;5066801;28;20044;-74
2022/05/19 10:43:51;;;;;;;1.65;1.55;;;29.90;50.40;;;;;;5065847;28;20057;-73
2022/05/19 10:46:20;;;;;;;5.20;1.55;;;30.00;50.40;;;;;;5067526;28;20475;-74
2022/05/19 10:49:12;;;;;;;3.53;2.10;;;30.00;50.40;;;;;;5061550;28;20120;-74
2022/05/19 10:51:47;;;;;;;3.58;1.58;;;30.10;50.30;;;;;;5067676;28;20122;-74
2022/05/19 10:54:22;;;;;;;2.78;1.65;;;30.20;50.20;;;;;;5064942;28;20047;-74
2022/05/19 10:57:06;;;;;;;2.97;1.63;;;30.10;50.00;;;;;;5069701;28;20032;-74
2022/05/19 11:00:06;;;;;;;2.95;1.67;;;30.20;50.30;;;;;;5065651;28;20029;-73
2022/05/19 11:02:56;;;;;;;1.77;1.40;;;29.20;51.00;;;;;;5064242;28;20056;-74
2022/05/19 11:05:31;;;;;;;;;;;29.20;51.30;;;;;;5067389;28;20039;-74
2022/05/19 11:08:22;;;;;;;2.95;1.55;;;29.80;51.10;;;;;;5069228;28;19909;-74
2022/05/19 11:11:27;;;;;;;2.47;1.63;;;30.10;50.40;;;;;;5068353;28;20048;-74
2022/05/19 11:14:38;;;;;;;2.60;1.50;;;29.40;50.50;;;;;;5038817;28;20110;-73
2022/05/19 11:17:28;;;;;;;2.08;1.85;;;29.30;51.30;;;;;;5081255;28;20051;-72
2022/05/19 11:20:14;;;;;;;1.58;1.45;;;29.70;50.60;;;;;;5091900;28;20048;-73
2022/05/19 11:22:41;;;;;;;1.83;1.33;;;29.50;50.30;;;;;;5089169;28;20051;-73
2022/05/19 11:28:24;;;;;;;2.72;1.90;;;29.00;51.50;;;;;;5092121;28;20393;-73
2022/05/19 11:31:18;;;;;;;3.70;2.00;;;29.10;51.50;;;;;;5084937;28;20473;-72
2022/05/19 11:33:50;;;;;;;3.42;1.42;;;29.00;51.20;;;;;;5093265;28;20484;-72
2022/05/19 11:36:32;;;;;;;2.50;1.60;;;29.40;51.80;;;;;;5088033;28;20036;-72
2022/05/19 11:39:18;;;;;;;2.33;1.90;;;29.90;51.40;;;;;;5088027;28;20035;-74
2022/05/19 11:41:47;;;;;;;3.63;1.65;;;29.90;51.00;;;;;;5088887;28;20040;-73
2022/05/19 11:44:30;;;;;;;2.30;1.73;;;30.20;50.40;;;;;;5087798;28;20449;-72
2022/05/19 11:47:15;;;;;;;3.05;2.15;;;30.10;51.40;;;;;;5089187;28;20038;-72
2022/05/19 11:55:48;;;;;;;2.78;1.65;;;30.70;50.60;;;;;;5092795;28;20035;-72
2022/05/19 11:58:24;;;;;;;1.80;1.48;;;30.70;50.60;;;;;;5093731;28;20047;-73
2022/05/19 12:01:11;;;;;;;4.93;1.85;;;30.50;50.90;;;;;;5070926;28;20363;-73
2022/05/19 12:03:44;;;;;;;2.83;1.92;;;30.30;51.00;;;;;;5094564;28;20055;-73
2022/05/19 12:06:12;;;;;;;2.35;1.48;;;30.10;51.30;;;;;;5086056;28;20496;-73
2022/05/19 12:08:55;;;;;;;4.82;1.90;;;30.10;51.80;;;;;;5090535;28;20035;-74
2022/05/19 12:11:29;;;;;;;3.05;1.58;;;30.30;51.00;;;;;;5068029;28;20489;-74
2022/05/19 12:14:10;;;;;;;2.30;1.90;;;30.20;51.50;;;;;;5072286;28;20044;-73
2022/05/19 12:17:09;;;;;;;5.80;2.10;;;30.20;51.60;;;;;;5068793;28;20033;-74
2022/05/19 12:19:37;;;;;;;2.33;2.03;;;30.80;51.70;;;;;;5060232;28;20025;-74
2022/05/19 12:22:05;;;;;;;2.75;1.95;;;31.10;50.30;;;;;;5063851;28;20025;-74
2022/05/19 12:24:42;;;;;;;3.53;2.15;;;31.30;50.40;;;;;;5069130;28;20045;-74
2022/05/19 12:27:19;;;;;;;2.08;1.63;;;31.10;50.70;;;;;;5073460;28;20384;-74
2022/05/19 12:33:11;;;;;;;2.97;1.98;;;31.20;50.20;;;;;;5068570;28;20041;-72
2022/05/19 12:35:39;;;;;;;3.35;2.20;;;30.70;50.60;;;;;;5054479;28;20052;-72
2022/05/19 12:38:26;;;;;;;1.88;1.48;;;30.50;51.60;;;;;;5070163;28;20478;-71
2022/05/19 12:40:58;;;;;;;2.85;1.90;;;31.00;51.00;;;;;;5072024;28;20044;-72
2022/05/19 12:43:36;;;;;;;2.90;2.42;;;31.60;50.40;;;;;;5067853;28;20037;-72
2022/05/19 12:46:09;;;;;;;2.72;1.67;;;31.50;49.90;;;;;;5052446;28;20048;-72
2022/05/19 12:48:35;;;;;;;3.08;2.17;;;31.20;51.00;;;;;;5072450;28;20033;-73
2022/05/19 12:51:14;;;;;;;2.53;2.33;;;31.50;50.70;;;;;;5047401;28;20033;-73
2022/05/19 12:53:58;;;;;;;6.35;1.65;;;31.60;50.10;;;;;;5065834;28;20476;-72
2022/05/19 12:56:40;;;;;;;2.35;1.88;;;31.70;50.60;;;;;;5063166;28;20035;-72
2022/05/19 12:59:09;;;;;;;3.05;2.00;;;32.00;50.00;;;;;;5070286;28;20028;-72
2022/05/19 13:01:44;;;;;;;;;;;31.60;49.70;;;;;;5065898;28;20036;-73
2022/05/19 13:04:19;;;;;;;2.25;1.80;;;31.60;50.30;;;;;;5072094;28;19908;-74
2022/05/19 13:07:00;;;;;;;2.28;1.95;;;31.90;49.50;;;;;;5027569;28;20037;-73
2022/05/19 13:09:32;;;;;;;3.30;1.95;;;32.10;49.80;;;;;;5065709;28;20397;-73
2022/05/19 13:12:07;;;;;;;1.83;1.23;;;32.00;49.20;;;;;;5070708;28;20060;-73
2022/05/19 13:14:42;;;;;;;2.28;1.75;;;31.30;49.90;;;;;;5071656;28;20040;-74
2022/05/19 13:17:19;;;;;;;2.55;1.83;;;30.80;50.20;;;;;;5068999;28;20040;-74
2022/05/19 13:19:45;;;;;;;2.38;1.73;;;31.30;50.30;;;;;;5074850;28;20029;-73
2022/05/19 13:22:34;;;;;;;5.82;1.90;;;31.60;49.70;;;;;;5078697;28;20029;-75
2022/05/19 13:25:04;;;;;;;3.03;1.90;;;32.00;49.30;;;;;;5076947;28;20054;-75
2022/05/19 13:30:40;;;;;;;3.03;1.90;;;32.20;50.20;;;;;;5072828;28;20051;-73
2022/05/19 13:33:10;;;;;;;3.83;2.28;;;32.10;49.50;;;;;;5064681;28;20044;-74
2022/05/19 13:35:38;;;;;;;3.70;2.08;;;32.40;48.70;;;;;;5053522;28;20047;-73
2022/05/19 13:38:22;;;;;;;7.95;1.85;;;32.50;48.90;;;;;;5062910;28;20033;-73
2022/05/19 13:40:49;;;;;;;10.95;1.73;;;32.60;48.90;;;;;;5059742;28;20028;-73